createdAt,value
2022-11-29T00:01:42.110Z,1.41
2022-11-29T00:04:10.246Z,1.37
2022-11-29T00:06:38.114Z,1.36
2022-11-29T00:09:12.700Z,1.36
2022-11-29T00:11:59.055Z,1.40
2022-11-29T00:14:29.588Z,1.38
2022-11-29T00:17:02.459Z,1.39
2022-11-29T00:19:30.505Z,1.34
2022-11-29T00:21:58.305Z,1.36
2022-11-29T00:24:25.870Z,1.40
2022-11-29T00:26:53.446Z,1.34
2022-11-29T00:29:20.952Z,1.31
2022-11-29T00:31:48.455Z,1.40
2022-11-29T00:34:16.039Z,1.46
2022-11-29T00:36:43.619Z,1.44
2022-11-29T00:39:12.176Z,1.47
2022-11-29T00:41:41.953Z,1.40
2022-11-29T00:44:18.405Z,1.37
2022-11-29T00:46:47.614Z,1.36
2022-11-29T00:49:15.423Z,1.39
2022-11-29T00:51:44.177Z,1.38
2022-11-29T00:54:11.760Z,1.31
2022-11-29T00:56:39.451Z,1.31
2022-11-29T00:59:06.978Z,1.25
2022-11-29T01:01:39.412Z,1.22
2022-11-29T01:04:07.147Z,1.18
2022-11-29T01:06:34.681Z,1.27
2022-11-29T01:09:02.768Z,1.36
2022-11-29T01:11:32.493Z,1.41
2022-11-29T01:14:03.334Z,1.36
2022-11-29T01:16:32.137Z,1.24
2022-11-29T01:19:00.505Z,1.18
2022-11-29T01:21:30.181Z,1.22
2022-11-29T01:23:58.468Z,1.21
2022-11-29T01:26:29.084Z,1.26
2022-11-29T01:29:00.404Z,1.31
2022-11-29T01:31:31.616Z,1.31
2022-11-29T01:34:02.716Z,1.12
2022-11-29T01:36:30.961Z,1.39
2022-11-29T01:39:04.345Z,1.46
2022-11-29T01:41:36.740Z,1.47
2022-11-29T01:44:13.446Z,1.45
2022-11-29T01:46:43.955Z,1.43
2022-11-29T01:49:14.139Z,1.38
2022-11-29T01:51:53.948Z,1.22
2022-11-29T01:54:23.973Z,1.29
2022-11-29T01:56:53.120Z,1.31
2022-11-29T01:59:28.000Z,1.31
2022-11-29T02:02:02.106Z,1.35
2022-11-29T02:04:33.656Z,1.38
2022-11-29T02:07:03.690Z,1.38
2022-11-29T02:09:31.561Z,1.45
2022-11-29T02:12:17.736Z,1.38
2022-11-29T02:15:39.501Z,1.01
2022-11-29T02:18:06.977Z,1.21
2022-11-29T02:21:11.610Z,1.18
2022-11-29T02:24:13.077Z,1.14
2022-11-29T02:27:18.349Z,1.19
2022-11-29T02:30:04.712Z,1.13
2022-11-29T02:32:55.409Z,1.20
2022-11-29T02:35:43.191Z,1.14
2022-11-29T02:38:29.269Z,1.15
2022-11-29T02:41:13.453Z,1.16
2022-11-29T02:44:13.215Z,1.17
2022-11-29T02:47:13.738Z,1.24
2022-11-29T02:50:16.509Z,1.14
2022-11-29T02:53:11.564Z,1.09
2022-11-29T02:55:41.782Z,1.10
2022-11-29T02:58:28.733Z,1.16
2022-11-29T03:01:24.029Z,1.11
2022-11-29T03:04:20.742Z,1.11
2022-11-29T03:07:00.244Z,1.08
2022-11-29T03:09:45.189Z,1.11
2022-11-29T03:12:37.493Z,1.15
2022-11-29T03:15:10.969Z,1.16
2022-11-29T03:17:58.661Z,1.12
2022-11-29T03:20:47.763Z,1.12
2022-11-29T03:23:23.352Z,1.16
2022-11-29T03:26:00.813Z,1.15
2022-11-29T03:28:54.990Z,1.15
2022-11-29T03:31:34.124Z,1.17
2022-11-29T03:34:26.324Z,1.24
2022-11-29T03:37:18.402Z,1.26
2022-11-29T03:39:52.181Z,1.24
2022-11-29T03:42:39.458Z,1.26
2022-11-29T03:45:10.105Z,1.18
2022-11-29T03:48:07.044Z,1.16
2022-11-29T03:50:40.182Z,1.21
2022-11-29T03:53:21.369Z,1.18
2022-11-29T03:55:56.289Z,1.16
2022-11-29T03:58:42.299Z,1.09
2022-11-29T04:01:48.322Z,1.06
2022-11-29T04:04:43.729Z,0.99
2022-11-29T04:07:39.244Z,0.98
2022-11-29T04:10:23.872Z,0.98
2022-11-29T04:13:13.498Z,1.03
2022-11-29T04:16:05.294Z,1.06
2022-11-29T04:18:57.527Z,1.05
2022-11-29T04:21:32.657Z,1.05
2022-11-29T04:24:11.660Z,1.03
2022-11-29T04:26:51.156Z,1.02
2022-11-29T04:29:40.251Z,1.05
2022-11-29T04:32:32.416Z,1.09
2022-11-29T04:35:21.816Z,1.18
2022-11-29T04:38:30.095Z,1.17
2022-11-29T04:41:16.510Z,1.09
2022-11-29T04:44:11.365Z,1.13
2022-11-29T04:46:57.498Z,1.17
2022-11-29T04:49:37.260Z,1.13
2022-11-29T04:52:22.899Z,1.10
2022-11-29T04:55:04.329Z,1.11
2022-11-29T04:57:36.491Z,1.13
2022-11-29T05:00:11.077Z,1.11
2022-11-29T05:03:33.697Z,1.13
2022-11-29T05:06:10.304Z,1.17
2022-11-29T05:08:56.747Z,1.09
2022-11-29T05:11:35.766Z,1.09
2022-11-29T05:14:06.060Z,1.12
2022-11-29T05:16:55.795Z,1.13
2022-11-29T05:19:36.776Z,1.03
2022-11-29T05:22:29.061Z,1.00
2022-11-29T05:25:06.743Z,0.98
2022-11-29T05:27:52.324Z,0.93
2022-11-29T05:30:24.567Z,0.98
2022-11-29T05:33:16.177Z,0.86
2022-11-29T05:36:14.886Z,0.80
2022-11-29T05:38:57.917Z,0.72
2022-11-29T05:41:50.232Z,0.70
2022-11-29T05:44:39.993Z,0.72
2022-11-29T05:47:10.715Z,0.75
2022-11-29T05:49:54.875Z,0.74
2022-11-29T05:52:35.774Z,0.70
2022-11-29T05:55:15.611Z,0.69
2022-11-29T05:58:18.477Z,0.67
2022-11-29T06:01:00.479Z,0.59
2022-11-29T06:03:40.199Z,0.58
2022-11-29T06:06:20.952Z,0.62
2022-11-29T06:09:27.290Z,0.57
2022-11-29T06:12:27.086Z,0.72
2022-11-29T06:15:19.647Z,0.72
2022-11-29T06:18:18.250Z,0.71
2022-11-29T06:21:27.570Z,0.77
2022-11-29T06:24:07.900Z,0.83
2022-11-29T06:26:58.140Z,0.84
2022-11-29T06:30:13.844Z,0.89
2022-11-29T06:33:05.073Z,0.89
2022-11-29T06:35:43.932Z,0.88
2022-11-29T06:38:20.588Z,0.85
2022-11-29T06:40:56.046Z,0.83
2022-11-29T06:43:28.050Z,0.86
2022-11-29T06:46:11.401Z,0.87
2022-11-29T06:48:59.152Z,0.92
2022-11-29T06:51:41.740Z,0.97
2022-11-29T06:54:37.341Z,0.93
2022-11-29T06:57:44.233Z,0.96
2022-11-29T07:00:19.856Z,0.95
2022-11-29T07:03:02.878Z,0.99
2022-11-29T07:05:31.514Z,1.03
2022-11-29T07:08:05.580Z,1.07
2022-11-29T07:10:45.820Z,1.13
2022-11-29T07:13:14.741Z,1.13
2022-11-29T07:16:25.068Z,1.20
2022-11-29T07:19:17.690Z,1.21
2022-11-29T07:22:14.912Z,1.20
2022-11-29T07:25:19.974Z,1.21
2022-11-29T07:27:58.497Z,1.24
2022-11-29T07:30:49.089Z,1.28
2022-11-29T07:33:28.520Z,1.36
2022-11-29T07:36:12.287Z,1.40
2022-11-29T07:39:00.890Z,1.34
2022-11-29T07:41:51.364Z,1.29
2022-11-29T07:44:48.008Z,1.37
2022-11-29T07:47:15.710Z,1.36
2022-11-29T07:49:43.330Z,1.43
2022-11-29T07:52:16.053Z,1.36
2022-11-29T07:54:43.875Z,1.39
2022-11-29T07:57:11.785Z,1.33
2022-11-29T07:59:39.288Z,1.43
2022-11-29T08:02:11.664Z,1.45
2022-11-29T08:04:44.711Z,1.50
2022-11-29T08:07:13.646Z,1.57
2022-11-29T08:09:43.673Z,1.58
2022-11-29T08:12:11.604Z,1.65
2022-11-29T08:14:39.182Z,1.55
2022-11-29T08:17:07.749Z,1.70
2022-11-29T08:19:37.441Z,1.70
2022-11-29T08:22:05.066Z,1.75
2022-11-29T08:24:32.586Z,1.74
2022-11-29T08:27:00.231Z,1.64
2022-11-29T08:29:27.865Z,1.63
2022-11-29T08:31:55.987Z,1.68
2022-11-29T08:34:25.024Z,1.72
2022-11-29T08:36:56.632Z,1.80
2022-11-29T08:39:26.783Z,1.81
2022-11-29T08:41:54.325Z,1.73
2022-11-29T08:44:21.918Z,1.77
2022-11-29T08:47:06.955Z,1.68
2022-11-29T08:49:34.611Z,1.64
2022-11-29T08:52:28.530Z,1.58
2022-11-29T08:55:02.981Z,1.50
2022-11-29T08:57:39.786Z,1.62
2022-11-29T09:00:08.940Z,1.70
2022-11-29T09:02:41.389Z,1.72
2022-11-29T09:05:10.371Z,1.82
2022-11-29T09:07:41.055Z,1.80
2022-11-29T09:10:09.432Z,1.87
2022-11-29T09:12:40.375Z,1.99
2022-11-29T09:15:10.837Z,2.15
2022-11-29T09:17:38.501Z,2.29
2022-11-29T09:20:08.060Z,2.11
2022-11-29T09:22:35.638Z,2.17
2022-11-29T09:25:03.306Z,2.13
2022-11-29T09:27:31.880Z,2.06
2022-11-29T09:30:01.901Z,1.98
2022-11-29T09:32:29.427Z,2.04
2022-11-29T09:34:59.334Z,2.13
2022-11-29T09:37:28.934Z,2.19
2022-11-29T09:39:56.469Z,2.31
2022-11-29T09:42:44.840Z,2.32
2022-11-29T09:45:20.465Z,2.17
2022-11-29T09:48:14.830Z,2.20
2022-11-29T09:51:07.269Z,2.45
2022-11-29T09:54:13.054Z,2.66
2022-11-29T09:56:47.409Z,2.62
2022-11-29T09:59:41.044Z,2.72
2022-11-29T10:02:21.821Z,2.55
2022-11-29T10:04:56.430Z,2.82
2022-11-29T10:07:35.223Z,2.81
2022-11-29T10:10:32.779Z,2.94
2022-11-29T10:13:26.231Z,2.69
2022-11-29T10:15:57.344Z,2.80
2022-11-29T10:18:30.101Z,2.86
2022-11-29T10:21:01.589Z,2.69
2022-11-29T10:23:35.161Z,2.72
2022-11-29T10:26:07.387Z,2.70
2022-11-29T10:28:37.832Z,2.56
2022-11-29T10:31:30.063Z,2.70
2022-11-29T10:34:01.629Z,2.89
2022-11-29T10:36:37.555Z,2.92
2022-11-29T10:39:14.560Z,2.81
2022-11-29T10:41:44.854Z,3.01
2022-11-29T10:44:15.662Z,2.84
2022-11-29T10:46:43.466Z,2.75
2022-11-29T10:49:19.959Z,2.85
2022-11-29T10:51:48.153Z,2.68
2022-11-29T10:54:45.135Z,2.73
2022-11-29T10:57:23.567Z,2.81
2022-11-29T11:00:04.757Z,2.72
2022-11-29T11:02:33.069Z,2.72
2022-11-29T11:05:02.974Z,2.77
2022-11-29T11:07:35.190Z,2.66
2022-11-29T11:10:05.731Z,2.55
2022-11-29T11:12:36.853Z,2.59
2022-11-29T11:15:29.132Z,2.70
2022-11-29T11:17:59.843Z,2.88
2022-11-29T11:20:31.735Z,2.89
2022-11-29T11:23:05.702Z,2.92
2022-11-29T11:25:35.635Z,2.89
2022-11-29T11:28:26.845Z,2.96
2022-11-29T11:31:10.713Z,2.95
2022-11-29T11:33:41.010Z,2.79
2022-11-29T11:36:21.052Z,2.75
2022-11-29T11:38:51.340Z,2.72
2022-11-29T11:41:52.151Z,2.76
2022-11-29T11:44:51.991Z,2.67
2022-11-29T11:47:24.342Z,2.57
2022-11-29T11:50:04.459Z,2.64
2022-11-29T11:52:44.847Z,2.42
2022-11-29T11:55:22.799Z,2.50
2022-11-29T11:58:02.239Z,2.53
2022-11-29T12:01:05.903Z,2.54
2022-11-29T12:04:01.970Z,2.58
2022-11-29T12:06:58.499Z,2.64
2022-11-29T12:09:44.800Z,2.68
2022-11-29T12:12:15.876Z,2.76
2022-11-29T12:14:58.809Z,2.76
2022-11-29T12:17:32.847Z,2.76
2022-11-29T12:20:10.981Z,2.76
2022-11-29T12:23:00.980Z,2.73
2022-11-29T12:25:34.019Z,2.80
2022-11-29T12:28:01.704Z,2.90
2022-11-29T12:30:29.332Z,2.91
2022-11-29T12:33:19.790Z,2.91
2022-11-29T12:36:11.821Z,2.87
2022-11-29T12:39:05.518Z,2.84
2022-11-29T12:41:43.796Z,2.91
2022-11-29T12:44:29.499Z,2.56
2022-11-29T12:47:35.616Z,2.92
2022-11-29T12:50:19.998Z,2.97
2022-11-29T12:53:15.682Z,3.07
2022-11-29T12:55:49.574Z,3.20
2022-11-29T12:58:25.115Z,3.21
2022-11-29T13:01:07.407Z,3.19
2022-11-29T13:03:40.469Z,3.29
2022-11-29T13:06:41.897Z,3.21
2022-11-29T13:09:29.698Z,3.14
2022-11-29T13:12:07.672Z,3.04
2022-11-29T13:14:49.600Z,3.20
2022-11-29T13:17:38.993Z,3.09
2022-11-29T13:20:46.951Z,3.08
2022-11-29T13:24:09.727Z,3.09
2022-11-29T13:26:40.713Z,3.03
2022-11-29T13:29:16.280Z,3.09
2022-11-29T13:31:45.043Z,3.02
2022-11-29T13:34:48.323Z,3.04
2022-11-29T13:37:25.429Z,2.97
2022-11-29T13:40:20.640Z,3.00
2022-11-29T13:43:03.995Z,3.01
2022-11-29T13:45:51.440Z,2.93
2022-11-29T13:48:54.289Z,2.83
2022-11-29T13:51:31.815Z,2.86
2022-11-29T13:54:04.300Z,2.82
2022-11-29T13:56:46.805Z,2.86
2022-11-29T13:59:29.601Z,2.90
2022-11-29T14:01:58.513Z,2.94
2022-11-29T14:04:30.978Z,2.89
2022-11-29T14:07:14.230Z,2.93
2022-11-29T14:10:05.082Z,2.88
2022-11-29T14:12:38.204Z,2.56
2022-11-29T14:15:16.181Z,2.86
2022-11-29T14:18:08.338Z,2.89
2022-11-29T14:20:44.083Z,2.81
2022-11-29T14:23:30.731Z,2.79
2022-11-29T14:25:58.208Z,2.78
2022-11-29T14:28:25.836Z,2.76
2022-11-29T14:30:54.936Z,2.76
2022-11-29T14:33:27.071Z,2.65
2022-11-29T14:36:05.024Z,2.70
2022-11-29T14:39:17.800Z,2.72
2022-11-29T14:42:04.160Z,2.72
2022-11-29T14:44:34.125Z,2.64
2022-11-29T14:47:08.137Z,2.60
2022-11-29T14:49:42.616Z,2.63
2022-11-29T14:52:15.973Z,2.60
2022-11-29T14:55:05.287Z,2.62
2022-11-29T14:57:50.974Z,2.62
2022-11-29T15:00:24.485Z,2.61
2022-11-29T15:02:52.093Z,2.62
2022-11-29T15:05:40.968Z,2.61
2022-11-29T15:08:26.262Z,2.61
2022-11-29T15:11:09.690Z,2.60
2022-11-29T15:17:13.275Z,1.77
2022-11-29T15:20:18.299Z,2.68
2022-11-29T15:22:45.960Z,2.70
2022-11-29T15:25:18.121Z,2.67
2022-11-29T15:27:53.552Z,2.64
2022-11-29T15:30:38.568Z,2.65
2022-11-29T15:33:21.408Z,2.66
2022-11-29T15:35:52.586Z,2.61
2022-11-29T15:38:22.653Z,2.61
2022-11-29T15:40:55.629Z,2.64
2022-11-29T15:43:30.432Z,2.63
2022-11-29T15:46:01.475Z,2.60
2022-11-29T15:48:32.828Z,2.60
2022-11-29T15:51:20.910Z,2.57
2022-11-29T15:54:13.315Z,2.58
2022-11-29T15:56:46.637Z,2.52
2022-11-29T15:59:42.155Z,2.43
2022-11-29T16:02:50.208Z,2.39
2022-11-29T16:05:32.708Z,2.35
2022-11-29T16:08:04.304Z,2.40
2022-11-29T16:10:53.301Z,2.43
2022-11-29T16:13:32.717Z,2.48
2022-11-29T16:16:28.064Z,2.49
2022-11-29T16:18:56.253Z,2.50
2022-11-29T16:21:33.588Z,2.52
2022-11-29T16:24:15.191Z,2.52
2022-11-29T16:26:47.832Z,2.43
2022-11-29T16:29:29.734Z,2.43
2022-11-29T16:31:57.701Z,2.46
2022-11-29T16:34:32.988Z,2.44
2022-11-29T16:37:01.698Z,2.44
2022-11-29T16:39:30.120Z,2.38
2022-11-29T16:42:24.873Z,2.44
2022-11-29T16:44:59.219Z,2.46
2022-11-29T16:47:29.925Z,2.47
2022-11-29T16:50:06.240Z,2.47
2022-11-29T16:52:35.199Z,2.50
2022-11-29T16:55:02.972Z,2.46
2022-11-29T16:57:31.639Z,2.42
2022-11-29T17:00:01.704Z,2.39
2022-11-29T17:02:31.534Z,2.39
2022-11-29T17:04:59.101Z,2.41
2022-11-29T17:07:32.771Z,2.48
2022-11-29T17:10:01.325Z,2.51
2022-11-29T17:12:28.918Z,2.53
2022-11-29T17:14:56.449Z,2.48
2022-11-29T17:17:24.185Z,2.45
2022-11-29T17:19:51.805Z,2.53
2022-11-29T17:22:19.723Z,2.56
2022-11-29T17:24:48.554Z,2.57
2022-11-29T17:27:16.526Z,2.59
2022-11-29T17:29:44.120Z,2.60
2022-11-29T17:32:11.751Z,2.60
2022-11-29T17:34:39.367Z,2.63
2022-11-29T17:37:08.352Z,2.67
2022-11-29T17:39:35.839Z,2.70
2022-11-29T17:42:06.441Z,2.73
2022-11-29T17:44:34.381Z,2.74
2022-11-29T17:47:04.718Z,2.76
2022-11-29T17:49:32.317Z,2.77
2022-11-29T17:51:59.859Z,2.76
2022-11-29T17:54:27.440Z,2.75
2022-11-29T17:56:57.252Z,2.72
2022-11-29T17:59:24.798Z,2.67
2022-11-29T18:01:52.450Z,2.66
2022-11-29T18:04:22.754Z,2.66
2022-11-29T18:06:50.746Z,2.67
2022-11-29T18:09:21.804Z,2.73
2022-11-29T18:11:50.624Z,2.76
2022-11-29T18:14:22.753Z,2.79
2022-11-29T18:16:50.541Z,2.79
2022-11-29T18:19:23.150Z,2.78
2022-11-29T18:21:51.216Z,2.82
2022-11-29T18:24:19.221Z,2.83
2022-11-29T18:26:47.611Z,2.81
2022-11-29T18:29:15.934Z,2.82
2022-11-29T18:31:45.978Z,2.85
2022-11-29T18:34:15.349Z,2.91
2022-11-29T18:36:47.868Z,2.94
2022-11-29T18:39:17.848Z,2.95
2022-11-29T18:41:48.550Z,2.96
2022-11-29T18:44:17.334Z,2.96
2022-11-29T18:46:46.182Z,2.97
2022-11-29T18:49:15.926Z,3.00
2022-11-29T18:51:46.528Z,2.95
2022-11-29T18:54:17.660Z,2.95
2022-11-29T18:56:46.680Z,2.96
2022-11-29T18:59:17.026Z,2.93
2022-11-29T19:01:47.636Z,2.94
2022-11-29T19:04:20.723Z,2.91
2022-11-29T19:06:53.129Z,2.94
2022-11-29T19:09:23.716Z,2.92
2022-11-29T19:11:51.473Z,2.93
2022-11-29T19:14:20.065Z,2.88
2022-11-29T19:16:49.709Z,2.86
2022-11-29T19:19:18.965Z,2.87
2022-11-29T19:21:46.634Z,2.89
2022-11-29T19:24:15.784Z,2.84
2022-11-29T19:26:45.653Z,2.83
2022-11-29T19:29:14.445Z,2.80
2022-11-29T19:31:44.588Z,2.82
2022-11-29T19:34:12.232Z,2.84
2022-11-29T19:36:45.345Z,2.79
2022-11-29T19:39:15.824Z,2.83
2022-11-29T19:41:45.823Z,2.83
2022-11-29T19:44:13.673Z,2.83
2022-11-29T19:46:48.210Z,2.80
2022-11-29T19:49:15.979Z,2.81
2022-11-29T19:51:43.577Z,2.75
2022-11-29T19:54:12.022Z,2.79
2022-11-29T19:56:40.327Z,2.79
2022-11-29T19:59:09.370Z,2.78
2022-11-29T20:01:41.268Z,2.79
2022-11-29T20:04:10.062Z,2.78
2022-11-29T20:06:37.660Z,2.77
2022-11-29T20:09:07.703Z,2.76
2022-11-29T20:11:35.462Z,2.76
2022-11-29T20:14:04.945Z,2.77
2022-11-29T20:16:35.228Z,2.79
2022-11-29T20:19:12.869Z,2.76
2022-11-29T20:21:47.656Z,2.69
2022-11-29T20:24:16.522Z,2.75
2022-11-29T20:26:46.725Z,2.75
2022-11-29T20:29:15.311Z,2.78
2022-11-29T20:31:49.626Z,2.79
2022-11-29T20:34:18.646Z,2.83
2022-11-29T20:37:17.100Z,2.84
2022-11-29T20:40:04.942Z,2.93
2022-11-29T20:42:46.973Z,2.94
2022-11-29T20:45:18.255Z,2.96
2022-11-29T20:47:52.171Z,2.99
2022-11-29T20:50:24.714Z,3.09
2022-11-29T20:53:01.197Z,3.12
2022-11-29T20:55:28.834Z,3.15
2022-11-29T20:57:56.400Z,3.15
2022-11-29T21:00:24.190Z,3.19
2022-11-29T21:02:51.718Z,3.18
2022-11-29T21:05:20.272Z,3.19
2022-11-29T21:07:50.283Z,3.21
2022-11-29T21:10:18.007Z,3.19
2022-11-29T21:12:48.606Z,3.19
2022-11-29T21:15:17.795Z,3.19
2022-11-29T21:17:45.751Z,3.19
2022-11-29T21:20:23.616Z,3.19
2022-11-29T21:23:03.757Z,3.23
2022-11-29T21:25:57.444Z,3.25
2022-11-29T21:28:34.129Z,3.33
2022-11-29T21:31:02.195Z,3.37
2022-11-29T21:33:32.328Z,3.40
2022-11-29T21:35:59.969Z,3.34
2022-11-29T21:38:28.379Z,3.22
2022-11-29T21:40:55.891Z,3.40
2022-11-29T21:43:50.239Z,3.38
2022-11-29T21:46:10.957Z,3.39
2022-11-29T21:48:41.212Z,3.43
2022-11-29T21:51:14.630Z,3.43
2022-11-29T21:53:44.265Z,3.43
2022-11-29T21:56:12.804Z,3.42
2022-11-29T21:58:40.755Z,3.42
2022-11-29T22:01:09.343Z,3.39
2022-11-29T22:03:37.411Z,3.36
2022-11-29T22:06:07.444Z,3.42
2022-11-29T22:08:38.903Z,3.43
2022-11-29T22:11:12.453Z,3.42
2022-11-29T22:14:03.360Z,3.40
2022-11-29T22:16:33.403Z,3.40
2022-11-29T22:19:01.001Z,3.38
2022-11-29T22:21:28.625Z,3.39
2022-11-29T22:23:57.075Z,3.41
2022-11-29T22:26:28.552Z,3.46
2022-11-29T22:28:56.155Z,3.44
2022-11-29T22:31:25.670Z,3.47
2022-11-29T22:33:56.675Z,3.51
2022-11-29T22:36:29.116Z,3.48
2022-11-29T22:38:56.780Z,3.56
2022-11-29T22:41:24.353Z,3.56
2022-11-29T22:43:51.857Z,3.56
2022-11-29T22:46:22.244Z,3.57
2022-11-29T22:48:53.183Z,3.57
2022-11-29T22:51:23.580Z,3.55
2022-11-29T22:53:56.108Z,3.54
2022-11-29T22:56:25.768Z,3.51
2022-11-29T22:58:53.601Z,3.55
2022-11-29T23:01:29.280Z,3.50
2022-11-29T23:04:01.304Z,3.49
2022-11-29T23:06:30.729Z,3.49
2022-11-29T23:09:10.768Z,3.43
2022-11-29T23:11:39.409Z,3.48
2022-11-29T23:14:06.957Z,3.46
2022-11-29T23:16:34.605Z,3.49
2022-11-29T23:19:03.013Z,3.54
2022-11-29T23:21:36.037Z,3.57
2022-11-29T23:24:04.389Z,3.55
2022-11-29T23:26:44.504Z,3.57
2022-11-29T23:29:14.536Z,3.56
2022-11-29T23:31:42.161Z,3.53
2022-11-29T23:34:17.506Z,3.55
2022-11-29T23:36:49.811Z,3.51
2022-11-29T23:39:20.071Z,3.58
2022-11-29T23:41:47.561Z,3.56
2022-11-29T23:44:15.194Z,3.62
2022-11-29T23:46:42.772Z,3.60
2022-11-29T23:49:10.265Z,3.60
2022-11-29T23:51:37.855Z,3.62
2022-11-29T23:54:07.887Z,3.66
2022-11-29T23:56:35.664Z,3.66
2022-11-29T23:59:05.824Z,3.68
